sensor_id;sensor_type;location;lat;lon;timestamp;P1;durP1;ratioP1;P2;durP2;ratioP2
56373;SDS011;58212;47.034;7.376;2022-10-23T00:00:59;6.43;;;1.02;;
56373;SDS011;58212;47.034;7.376;2022-10-23T00:03:36;4.32;;;0.90;;
56373;SDS011;58212;47.034;7.376;2022-10-23T00:06:03;4.03;;;1.02;;
56373;SDS011;58212;47.034;7.376;2022-10-23T00:08:30;6.25;;;0.93;;
56373;SDS011;58212;47.034;7.376;2022-10-23T00:10:58;6.80;;;1.30;;
56373;SDS011;58212;47.034;7.376;2022-10-23T00:13:28;5.75;;;1.05;;
56373;SDS011;58212;47.034;7.376;2022-10-23T00:15:55;4.93;;;0.90;;
56373;SDS011;58212;47.034;7.376;2022-10-23T00:18:22;7.00;;;1.35;;
56373;SDS011;58212;47.034;7.376;2022-10-23T00:20:49;6.32;;;1.08;;
56373;SDS011;58212;47.034;7.376;2022-10-23T00:23:16;5.03;;;1.10;;
56373;SDS011;58212;47.034;7.376;2022-10-23T00:25:43;3.47;;;1.10;;
56373;SDS011;58212;47.034;7.376;2022-10-23T00:28:10;5.80;;;1.15;;
56373;SDS011;58212;47.034;7.376;2022-10-23T00:30:39;7.45;;;0.98;;
56373;SDS011;58212;47.034;7.376;2022-10-23T00:33:08;4.45;;;1.00;;
56373;SDS011;58212;47.034;7.376;2022-10-23T00:35:38;3.55;;;1.10;;
56373;SDS011;58212;47.034;7.376;2022-10-23T00:38:06;4.53;;;1.35;;
56373;SDS011;58212;47.034;7.376;2022-10-23T00:40:33;3.92;;;1.00;;
56373;SDS011;58212;47.034;7.376;2022-10-23T00:43:00;8.25;;;1.10;;
56373;SDS011;58212;47.034;7.376;2022-10-23T00:45:28;4.50;;;1.27;;
56373;SDS011;58212;47.034;7.376;2022-10-23T00:47:59;9.57;;;1.10;;
56373;SDS011;58212;47.034;7.376;2022-10-23T00:50:27;9.07;;;1.40;;
56373;SDS011;58212;47.034;7.376;2022-10-23T00:52:56;6.85;;;1.10;;
56373;SDS011;58212;47.034;7.376;2022-10-23T00:55:28;5.20;;;1.17;;
56373;SDS011;58212;47.034;7.376;2022-10-23T00:57:56;5.88;;;1.20;;
56373;SDS011;58212;47.034;7.376;2022-10-23T01:00:24;5.25;;;1.23;;
56373;SDS011;58212;47.034;7.376;2022-10-23T01:02:53;3.03;;;1.30;;
56373;SDS011;58212;47.034;7.376;2022-10-23T01:05:24;5.93;;;1.27;;
56373;SDS011;58212;47.034;7.376;2022-10-23T01:07:58;5.53;;;1.10;;
56373;SDS011;58212;47.034;7.376;2022-10-23T01:10:33;9.57;;;1.27;;
56373;SDS011;58212;47.034;7.376;2022-10-23T01:13:10;7.63;;;1.30;;
56373;SDS011;58212;47.034;7.376;2022-10-23T01:15:42;11.30;;;1.50;;
56373;SDS011;58212;47.034;7.376;2022-10-23T01:18:15;5.13;;;1.15;;
56373;SDS011;58212;47.034;7.376;2022-10-23T01:20:51;11.30;;;1.55;;
56373;SDS011;58212;47.034;7.376;2022-10-23T01:23:31;7.72;;;1.25;;
56373;SDS011;58212;47.034;7.376;2022-10-23T01:26:17;7.68;;;1.60;;
56373;SDS011;58212;47.034;7.376;2022-10-23T01:28:55;6.95;;;1.20;;
56373;SDS011;58212;47.034;7.376;2022-10-23T01:31:29;8.18;;;1.15;;
56373;SDS011;58212;47.034;7.376;2022-10-23T01:34:02;5.22;;;0.93;;
56373;SDS011;58212;47.034;7.376;2022-10-23T01:36:34;5.15;;;1.50;;
56373;SDS011;58212;47.034;7.376;2022-10-23T01:39:05;6.63;;;1.20;;
56373;SDS011;58212;47.034;7.376;2022-10-23T01:41:39;2.95;;;1.00;;
56373;SDS011;58212;47.034;7.376;2022-10-23T01:44:17;7.65;;;1.60;;
56373;SDS011;58212;47.034;7.376;2022-10-23T01:46:47;8.60;;;1.52;;
56373;SDS011;58212;47.034;7.376;2022-10-23T01:49:17;7.20;;;1.75;;
56373;SDS011;58212;47.034;7.376;2022-10-23T01:51:53;9.25;;;1.33;;
56373;SDS011;58212;47.034;7.376;2022-10-23T01:54:25;5.30;;;1.27;;
56373;SDS011;58212;47.034;7.376;2022-10-23T01:56:55;5.47;;;1.20;;
56373;SDS011;58212;47.034;7.376;2022-10-23T01:59:30;5.82;;;1.42;;
56373;SDS011;58212;47.034;7.376;2022-10-23T02:02:02;5.05;;;1.52;;
56373;SDS011;58212;47.034;7.376;2022-10-23T02:04:32;6.63;;;1.40;;
56373;SDS011;58212;47.034;7.376;2022-10-23T02:07:02;6.07;;;1.23;;
56373;SDS011;58212;47.034;7.376;2022-10-23T02:09:32;4.95;;;0.82;;
56373;SDS011;58212;47.034;7.376;2022-10-23T02:12:01;3.67;;;1.38;;
56373;SDS011;58212;47.034;7.376;2022-10-23T02:14:36;5.05;;;1.23;;
56373;SDS011;58212;47.034;7.376;2022-10-23T02:17:13;6.90;;;1.48;;
56373;SDS011;58212;47.034;7.376;2022-10-23T02:19:46;8.13;;;1.58;;
56373;SDS011;58212;47.034;7.376;2022-10-23T02:22:24;6.28;;;1.17;;
56373;SDS011;58212;47.034;7.376;2022-10-23T02:24:56;5.10;;;1.08;;
56373;SDS011;58212;47.034;7.376;2022-10-23T02:27:29;4.93;;;0.98;;
56373;SDS011;58212;47.034;7.376;2022-10-23T02:30:03;7.63;;;1.02;;
56373;SDS011;58212;47.034;7.376;2022-10-23T02:32:35;4.63;;;1.08;;
56373;SDS011;58212;47.034;7.376;2022-10-23T02:35:05;4.22;;;1.20;;
56373;SDS011;58212;47.034;7.376;2022-10-23T02:37:33;5.60;;;1.42;;
56373;SDS011;58212;47.034;7.376;2022-10-23T02:40:02;8.13;;;1.38;;
56373;SDS011;58212;47.034;7.376;2022-10-23T02:42:40;9.82;;;1.20;;
56373;SDS011;58212;47.034;7.376;2022-10-23T02:45:15;6.32;;;1.45;;
56373;SDS011;58212;47.034;7.376;2022-10-23T02:47:51;7.97;;;1.02;;
56373;SDS011;58212;47.034;7.376;2022-10-23T02:50:25;12.77;;;1.23;;
56373;SDS011;58212;47.034;7.376;2022-10-23T02:53:02;3.92;;;0.88;;
56373;SDS011;58212;47.034;7.376;2022-10-23T02:55:36;6.43;;;1.38;;
56373;SDS011;58212;47.034;7.376;2022-10-23T02:58:12;3.10;;;0.75;;
56373;SDS011;58212;47.034;7.376;2022-10-23T03:00:51;9.27;;;1.08;;
56373;SDS011;58212;47.034;7.376;2022-10-23T03:03:23;1.83;;;0.90;;
56373;SDS011;58212;47.034;7.376;2022-10-23T03:05:53;7.35;;;0.93;;
56373;SDS011;58212;47.034;7.376;2022-10-23T03:08:21;5.15;;;1.00;;
56373;SDS011;58212;47.034;7.376;2022-10-23T03:10:49;8.52;;;1.60;;
56373;SDS011;58212;47.034;7.376;2022-10-23T03:13:20;5.97;;;0.80;;
56373;SDS011;58212;47.034;7.376;2022-10-23T03:15:48;5.28;;;1.13;;
56373;SDS011;58212;47.034;7.376;2022-10-23T03:18:16;7.20;;;1.25;;
56373;SDS011;58212;47.034;7.376;2022-10-23T03:20:47;1.98;;;1.08;;
56373;SDS011;58212;47.034;7.376;2022-10-23T03:23:14;4.57;;;0.90;;
56373;SDS011;58212;47.034;7.376;2022-10-23T03:25:41;5.28;;;0.90;;
56373;SDS011;58212;47.034;7.376;2022-10-23T03:28:19;10.60;;;1.33;;
56373;SDS011;58212;47.034;7.376;2022-10-23T03:30:46;4.40;;;1.17;;
56373;SDS011;58212;47.034;7.376;2022-10-23T03:33:13;7.55;;;1.00;;
56373;SDS011;58212;47.034;7.376;2022-10-23T03:35:42;9.50;;;1.30;;
56373;SDS011;58212;47.034;7.376;2022-10-23T03:38:12;10.50;;;1.15;;
56373;SDS011;58212;47.034;7.376;2022-10-23T03:40:39;5.50;;;1.27;;
56373;SDS011;58212;47.034;7.376;2022-10-23T03:43:07;7.00;;;1.15;;
56373;SDS011;58212;47.034;7.376;2022-10-23T03:45:36;5.00;;;1.00;;
56373;SDS011;58212;47.034;7.376;2022-10-23T03:48:03;6.22;;;1.00;;
56373;SDS011;58212;47.034;7.376;2022-10-23T03:50:34;6.75;;;1.17;;
56373;SDS011;58212;47.034;7.376;2022-10-23T03:53:05;4.90;;;1.80;;
56373;SDS011;58212;47.034;7.376;2022-10-23T03:55:34;6.00;;;1.30;;
56373;SDS011;58212;47.034;7.376;2022-10-23T03:58:04;5.18;;;1.00;;
56373;SDS011;58212;47.034;7.376;2022-10-23T04:00:31;5.30;;;0.90;;
56373;SDS011;58212;47.034;7.376;2022-10-23T04:02:59;4.35;;;1.02;;
56373;SDS011;58212;47.034;7.376;2022-10-23T04:05:26;8.18;;;1.10;;
56373;SDS011;58212;47.034;7.376;2022-10-23T04:07:56;3.55;;;1.02;;
56373;SDS011;58212;47.034;7.376;2022-10-23T04:10:25;6.03;;;1.27;;
56373;SDS011;58212;47.034;7.376;2022-10-23T04:12:52;9.25;;;1.55;;
56373;SDS011;58212;47.034;7.376;2022-10-23T04:15:20;5.30;;;1.00;;
56373;SDS011;58212;47.034;7.376;2022-10-23T04:17:47;8.05;;;1.13;;
56373;SDS011;58212;47.034;7.376;2022-10-23T04:20:14;2.67;;;0.85;;
56373;SDS011;58212;47.034;7.376;2022-10-23T04:22:41;2.60;;;0.85;;
56373;SDS011;58212;47.034;7.376;2022-10-23T04:25:09;6.45;;;0.95;;
56373;SDS011;58212;47.034;7.376;2022-10-23T04:27:40;2.97;;;0.77;;
56373;SDS011;58212;47.034;7.376;2022-10-23T04:30:07;3.45;;;1.30;;
56373;SDS011;58212;47.034;7.376;2022-10-23T04:32:36;4.90;;;0.98;;
56373;SDS011;58212;47.034;7.376;2022-10-23T04:35:03;4.88;;;0.98;;
56373;SDS011;58212;47.034;7.376;2022-10-23T04:37:31;4.18;;;1.00;;
56373;SDS011;58212;47.034;7.376;2022-10-23T04:39:58;4.55;;;1.00;;
56373;SDS011;58212;47.034;7.376;2022-10-23T04:42:25;3.75;;;1.00;;
56373;SDS011;58212;47.034;7.376;2022-10-23T04:44:54;5.80;;;0.98;;
56373;SDS011;58212;47.034;7.376;2022-10-23T04:47:21;3.60;;;0.90;;
56373;SDS011;58212;47.034;7.376;2022-10-23T04:49:55;2.95;;;0.82;;
56373;SDS011;58212;47.034;7.376;2022-10-23T04:52:41;5.07;;;0.85;;
56373;SDS011;58212;47.034;7.376;2022-10-23T04:55:31;2.53;;;0.90;;
56373;SDS011;58212;47.034;7.376;2022-10-23T04:58:08;6.45;;;1.13;;
56373;SDS011;58212;47.034;7.376;2022-10-23T05:00:37;8.57;;;1.17;;
56373;SDS011;58212;47.034;7.376;2022-10-23T05:03:04;1.70;;;0.73;;
56373;SDS011;58212;47.034;7.376;2022-10-23T05:05:36;7.55;;;1.02;;
56373;SDS011;58212;47.034;7.376;2022-10-23T05:08:15;4.50;;;0.98;;
56373;SDS011;58212;47.034;7.376;2022-10-23T05:11:02;3.00;;;0.80;;
56373;SDS011;58212;47.034;7.376;2022-10-23T05:13:33;2.97;;;0.98;;
56373;SDS011;58212;47.034;7.376;2022-10-23T05:16:02;5.63;;;0.95;;
56373;SDS011;58212;47.034;7.376;2022-10-23T05:18:33;3.65;;;1.05;;
56373;SDS011;58212;47.034;7.376;2022-10-23T05:21:03;5.53;;;1.40;;
56373;SDS011;58212;47.034;7.376;2022-10-23T05:23:33;5.78;;;1.05;;
56373;SDS011;58212;47.034;7.376;2022-10-23T05:26:02;7.53;;;1.17;;
56373;SDS011;58212;47.034;7.376;2022-10-23T05:28:30;6.45;;;1.23;;
56373;SDS011;58212;47.034;7.376;2022-10-23T05:30:58;2.22;;;1.10;;
56373;SDS011;58212;47.034;7.376;2022-10-23T05:33:29;3.55;;;0.90;;
56373;SDS011;58212;47.034;7.376;2022-10-23T05:36:00;3.42;;;1.10;;
56373;SDS011;58212;47.034;7.376;2022-10-23T05:38:29;4.53;;;1.20;;
56373;SDS011;58212;47.034;7.376;2022-10-23T05:41:03;3.20;;;0.90;;
56373;SDS011;58212;47.034;7.376;2022-10-23T05:43:31;7.47;;;1.35;;
56373;SDS011;58212;47.034;7.376;2022-10-23T05:46:05;4.57;;;1.25;;
56373;SDS011;58212;47.034;7.376;2022-10-23T05:48:46;2.88;;;1.10;;
56373;SDS011;58212;47.034;7.376;2022-10-23T05:51:15;4.25;;;0.98;;
56373;SDS011;58212;47.034;7.376;2022-10-23T05:54:03;3.08;;;1.00;;
56373;SDS011;58212;47.034;7.376;2022-10-23T05:56:37;2.65;;;0.90;;
56373;SDS011;58212;47.034;7.376;2022-10-23T05:59:18;2.90;;;1.00;;
56373;SDS011;58212;47.034;7.376;2022-10-23T06:01:58;8.05;;;1.35;;
56373;SDS011;58212;47.034;7.376;2022-10-23T06:04:45;5.70;;;1.42;;
56373;SDS011;58212;47.034;7.376;2022-10-23T06:07:38;3.58;;;1.05;;
56373;SDS011;58212;47.034;7.376;2022-10-23T06:10:06;3.47;;;1.42;;
56373;SDS011;58212;47.034;7.376;2022-10-23T06:12:38;6.15;;;1.50;;
56373;SDS011;58212;47.034;7.376;2022-10-23T06:15:08;3.50;;;1.40;;
56373;SDS011;58212;47.034;7.376;2022-10-23T06:17:58;6.75;;;1.38;;
56373;SDS011;58212;47.034;7.376;2022-10-23T06:20:28;4.63;;;1.70;;
56373;SDS011;58212;47.034;7.376;2022-10-23T06:23:05;5.70;;;1.63;;
56373;SDS011;58212;47.034;7.376;2022-10-23T06:25:51;2.63;;;1.10;;
56373;SDS011;58212;47.034;7.376;2022-10-23T06:28:25;4.50;;;1.40;;
56373;SDS011;58212;47.034;7.376;2022-10-23T06:30:55;3.78;;;1.40;;
56373;SDS011;58212;47.034;7.376;2022-10-23T06:33:22;6.03;;;1.30;;
56373;SDS011;58212;47.034;7.376;2022-10-23T06:35:51;3.85;;;1.40;;
56373;SDS011;58212;47.034;7.376;2022-10-23T06:38:21;4.03;;;1.50;;
56373;SDS011;58212;47.034;7.376;2022-10-23T06:40:53;14.23;;;3.55;;
56373;SDS011;58212;47.034;7.376;2022-10-23T06:43:31;8.63;;;2.78;;
56373;SDS011;58212;47.034;7.376;2022-10-23T06:46:14;13.85;;;3.10;;
56373;SDS011;58212;47.034;7.376;2022-10-23T06:49:00;8.57;;;3.13;;
56373;SDS011;58212;47.034;7.376;2022-10-23T06:51:33;29.45;;;19.40;;
56373;SDS011;58212;47.034;7.376;2022-10-23T06:54:00;10.63;;;3.88;;
56373;SDS011;58212;47.034;7.376;2022-10-23T06:56:47;6.38;;;3.67;;
56373;SDS011;58212;47.034;7.376;2022-10-23T06:59:17;9.50;;;3.45;;
56373;SDS011;58212;47.034;7.376;2022-10-23T07:01:47;5.18;;;3.65;;
56373;SDS011;58212;47.034;7.376;2022-10-23T07:04:15;7.32;;;3.60;;
56373;SDS011;58212;47.034;7.376;2022-10-23T07:06:44;6.00;;;3.92;;
56373;SDS011;58212;47.034;7.376;2022-10-23T07:09:17;5.88;;;4.20;;
56373;SDS011;58212;47.034;7.376;2022-10-23T07:11:50;4.25;;;3.55;;
56373;SDS011;58212;47.034;7.376;2022-10-23T07:14:21;12.00;;;4.63;;
56373;SDS011;58212;47.034;7.376;2022-10-23T07:16:49;4.80;;;4.13;;
56373;SDS011;58212;47.034;7.376;2022-10-23T07:19:16;68.57;;;8.68;;
56373;SDS011;58212;47.034;7.376;2022-10-23T07:21:50;147.27;;;10.90;;
56373;SDS011;58212;47.034;7.376;2022-10-23T07:24:26;8.70;;;5.50;;
56373;SDS011;58212;47.034;7.376;2022-10-23T07:26:56;13.50;;;6.93;;
56373;SDS011;58212;47.034;7.376;2022-10-23T07:29:26;10.32;;;6.60;;
56373;SDS011;58212;47.034;7.376;2022-10-23T07:31:53;24.63;;;7.53;;
56373;SDS011;58212;47.034;7.376;2022-10-23T07:34:41;4.47;;;4.10;;
56373;SDS011;58212;47.034;7.376;2022-10-23T07:37:18;4.85;;;3.40;;
56373;SDS011;58212;47.034;7.376;2022-10-23T07:39:45;7.20;;;3.13;;
56373;SDS011;58212;47.034;7.376;2022-10-23T07:42:12;5.88;;;5.28;;
56373;SDS011;58212;47.034;7.376;2022-10-23T07:44:40;26.58;;;7.65;;
56373;SDS011;58212;47.034;7.376;2022-10-23T07:47:07;16.55;;;6.63;;
56373;SDS011;58212;47.034;7.376;2022-10-23T07:49:34;8.85;;;5.65;;
56373;SDS011;58212;47.034;7.376;2022-10-23T07:52:03;25.83;;;6.68;;
56373;SDS011;58212;47.034;7.376;2022-10-23T07:54:50;14.90;;;6.20;;
56373;SDS011;58212;47.034;7.376;2022-10-23T07:57:19;7.03;;;5.40;;
56373;SDS011;58212;47.034;7.376;2022-10-23T07:59:56;23.52;;;5.78;;
56373;SDS011;58212;47.034;7.376;2022-10-23T08:02:28;15.02;;;5.38;;
56373;SDS011;58212;47.034;7.376;2022-10-23T08:05:10;5.28;;;4.68;;
56373;SDS011;58212;47.034;7.376;2022-10-23T08:07:46;10.50;;;5.72;;
56373;SDS011;58212;47.034;7.376;2022-10-23T08:10:16;27.65;;;6.28;;
56373;SDS011;58212;47.034;7.376;2022-10-23T08:12:44;43.53;;;7.65;;
56373;SDS011;58212;47.034;7.376;2022-10-23T08:15:12;58.25;;;8.05;;
56373;SDS011;58212;47.034;7.376;2022-10-23T08:17:53;26.05;;;6.80;;
56373;SDS011;58212;47.034;7.376;2022-10-23T08:20:43;41.22;;;7.47;;
56373;SDS011;58212;47.034;7.376;2022-10-23T08:23:13;20.40;;;6.22;;
56373;SDS011;58212;47.034;7.376;2022-10-23T08:25:45;34.03;;;6.80;;
56373;SDS011;58212;47.034;7.376;2022-10-23T08:28:14;7.97;;;5.75;;
56373;SDS011;58212;47.034;7.376;2022-10-23T08:30:51;6.35;;;5.80;;
56373;SDS011;58212;47.034;7.376;2022-10-23T08:33:18;12.75;;;6.80;;
56373;SDS011;58212;47.034;7.376;2022-10-23T08:35:46;7.38;;;6.68;;
56373;SDS011;58212;47.034;7.376;2022-10-23T08:38:21;7.35;;;6.75;;
56373;SDS011;58212;47.034;7.376;2022-10-23T08:40:50;7.82;;;6.60;;
56373;SDS011;58212;47.034;7.376;2022-10-23T08:43:40;7.25;;;6.60;;
56373;SDS011;58212;47.034;7.376;2022-10-23T08:46:27;6.40;;;5.80;;
56373;SDS011;58212;47.034;7.376;2022-10-23T08:49:28;9.20;;;5.63;;
56373;SDS011;58212;47.034;7.376;2022-10-23T08:52:06;6.72;;;5.70;;
56373;SDS011;58212;47.034;7.376;2022-10-23T08:54:45;10.70;;;7.00;;
56373;SDS011;58212;47.034;7.376;2022-10-23T08:57:27;9.30;;;7.68;;
56373;SDS011;58212;47.034;7.376;2022-10-23T09:00:00;8.40;;;7.60;;
56373;SDS011;58212;47.034;7.376;2022-10-23T09:02:31;9.63;;;8.70;;
56373;SDS011;58212;47.034;7.376;2022-10-23T09:05:05;10.27;;;9.07;;
56373;SDS011;58212;47.034;7.376;2022-10-23T09:07:52;9.65;;;8.75;;
56373;SDS011;58212;47.034;7.376;2022-10-23T09:10:33;9.05;;;8.15;;
56373;SDS011;58212;47.034;7.376;2022-10-23T09:13:30;9.23;;;8.27;;
56373;SDS011;58212;47.034;7.376;2022-10-23T09:16:12;8.95;;;8.15;;
56373;SDS011;58212;47.034;7.376;2022-10-23T09:18:47;8.40;;;7.65;;
56373;SDS011;58212;47.034;7.376;2022-10-23T09:21:15;7.90;;;7.10;;
56373;SDS011;58212;47.034;7.376;2022-10-23T09:23:45;8.55;;;7.85;;
56373;SDS011;58212;47.034;7.376;2022-10-23T09:26:13;8.75;;;7.95;;
56373;SDS011;58212;47.034;7.376;2022-10-23T09:28:45;8.30;;;7.53;;
56373;SDS011;58212;47.034;7.376;2022-10-23T09:31:14;7.40;;;6.80;;
56373;SDS011;58212;47.034;7.376;2022-10-23T09:33:52;7.38;;;6.78;;
56373;SDS011;58212;47.034;7.376;2022-10-23T09:36:21;8.15;;;7.35;;
56373;SDS011;58212;47.034;7.376;2022-10-23T09:38:51;8.55;;;7.07;;
56373;SDS011;58212;47.034;7.376;2022-10-23T09:41:21;8.80;;;7.90;;
56373;SDS011;58212;47.034;7.376;2022-10-23T09:44:01;8.48;;;7.68;;
56373;SDS011;58212;47.034;7.376;2022-10-23T09:46:45;9.68;;;8.23;;
56373;SDS011;58212;47.034;7.376;2022-10-23T09:49:14;10.05;;;9.05;;
56373;SDS011;58212;47.034;7.376;2022-10-23T09:51:59;8.57;;;7.78;;
56373;SDS011;58212;47.034;7.376;2022-10-23T09:54:28;10.38;;;9.38;;
56373;SDS011;58212;47.034;7.376;2022-10-23T09:57:02;10.68;;;9.55;;
56373;SDS011;58212;47.034;7.376;2022-10-23T09:59:39;12.13;;;10.38;;
56373;SDS011;58212;47.034;7.376;2022-10-23T10:02:15;12.18;;;9.80;;
56373;SDS011;58212;47.034;7.376;2022-10-23T10:05:19;11.40;;;10.30;;
56373;SDS011;58212;47.034;7.376;2022-10-23T10:07:52;11.30;;;10.18;;
56373;SDS011;58212;47.034;7.376;2022-10-23T10:10:24;10.85;;;9.75;;
56373;SDS011;58212;47.034;7.376;2022-10-23T10:12:56;14.00;;;11.80;;
56373;SDS011;58212;47.034;7.376;2022-10-23T10:15:29;12.32;;;10.98;;
56373;SDS011;58212;47.034;7.376;2022-10-23T10:18:04;11.63;;;10.50;;
56373;SDS011;58212;47.034;7.376;2022-10-23T10:20:43;11.00;;;9.93;;
56373;SDS011;58212;47.034;7.376;2022-10-23T10:23:21;11.23;;;10.13;;
56373;SDS011;58212;47.034;7.376;2022-10-23T10:26:01;10.45;;;9.32;;
56373;SDS011;58212;47.034;7.376;2022-10-23T10:28:46;11.57;;;9.95;;
56373;SDS011;58212;47.034;7.376;2022-10-23T10:31:22;10.57;;;9.48;;
56373;SDS011;58212;47.034;7.376;2022-10-23T10:34:01;12.30;;;9.65;;
56373;SDS011;58212;47.034;7.376;2022-10-23T10:36:46;10.90;;;9.35;;
56373;SDS011;58212;47.034;7.376;2022-10-23T10:39:20;9.57;;;8.57;;
56373;SDS011;58212;47.034;7.376;2022-10-23T10:42:02;9.07;;;8.23;;
56373;SDS011;58212;47.034;7.376;2022-10-23T10:44:53;8.90;;;8.00;;
56373;SDS011;58212;47.034;7.376;2022-10-23T10:47:30;9.02;;;7.85;;
56373;SDS011;58212;47.034;7.376;2022-10-23T10:50:06;7.82;;;7.03;;
56373;SDS011;58212;47.034;7.376;2022-10-23T10:52:53;8.35;;;7.20;;
56373;SDS011;58212;47.034;7.376;2022-10-23T10:55:30;6.15;;;5.38;;
56373;SDS011;58212;47.034;7.376;2022-10-23T10:58:02;7.57;;;5.80;;
56373;SDS011;58212;47.034;7.376;2022-10-23T11:00:35;7.95;;;5.72;;
56373;SDS011;58212;47.034;7.376;2022-10-23T11:03:16;9.02;;;6.07;;
56373;SDS011;58212;47.034;7.376;2022-10-23T11:05:53;6.90;;;5.65;;
56373;SDS011;58212;47.034;7.376;2022-10-23T11:08:22;6.60;;;5.97;;
56373;SDS011;58212;47.034;7.376;2022-10-23T11:10:57;7.10;;;5.88;;
56373;SDS011;58212;47.034;7.376;2022-10-23T11:13:32;9.70;;;6.22;;
56373;SDS011;58212;47.034;7.376;2022-10-23T11:16:03;7.38;;;6.68;;
56373;SDS011;58212;47.034;7.376;2022-10-23T11:18:36;8.77;;;8.02;;
56373;SDS011;58212;47.034;7.376;2022-10-23T11:21:11;11.70;;;10.50;;
56373;SDS011;58212;47.034;7.376;2022-10-23T11:24:12;10.23;;;9.18;;
56373;SDS011;58212;47.034;7.376;2022-10-23T11:30:11;8.43;;;7.63;;
56373;SDS011;58212;47.034;7.376;2022-10-23T11:32:51;16.17;;;9.13;;
56373;SDS011;58212;47.034;7.376;2022-10-23T11:35:43;10.77;;;9.75;;
56373;SDS011;58212;47.034;7.376;2022-10-23T11:38:23;12.07;;;10.57;;
56373;SDS011;58212;47.034;7.376;2022-10-23T11:40:52;12.95;;;11.75;;
56373;SDS011;58212;47.034;7.376;2022-10-23T11:43:26;12.18;;;11.07;;
56373;SDS011;58212;47.034;7.376;2022-10-23T11:45:55;11.45;;;10.38;;
56373;SDS011;58212;47.034;7.376;2022-10-23T11:48:34;11.57;;;10.48;;
56373;SDS011;58212;47.034;7.376;2022-10-23T11:51:04;10.38;;;9.38;;
56373;SDS011;58212;47.034;7.376;2022-10-23T11:53:38;11.02;;;9.10;;
56373;SDS011;58212;47.034;7.376;2022-10-23T11:58:55;9.55;;;8.60;;
56373;SDS011;58212;47.034;7.376;2022-10-23T12:01:34;8.82;;;8.07;;
56373;SDS011;58212;47.034;7.376;2022-10-23T12:04:15;9.55;;;8.65;;
56373;SDS011;58212;47.034;7.376;2022-10-23T12:06:57;8.90;;;7.82;;
56373;SDS011;58212;47.034;7.376;2022-10-23T12:09:34;10.45;;;9.55;;
56373;SDS011;58212;47.034;7.376;2022-10-23T12:12:16;9.60;;;8.60;;
56373;SDS011;58212;47.034;7.376;2022-10-23T12:15:05;9.00;;;8.13;;
56373;SDS011;58212;47.034;7.376;2022-10-23T12:17:43;9.63;;;8.60;;
56373;SDS011;58212;47.034;7.376;2022-10-23T12:20:22;10.10;;;9.15;;
56373;SDS011;58212;47.034;7.376;2022-10-23T12:23:00;10.82;;;8.40;;
56373;SDS011;58212;47.034;7.376;2022-10-23T12:25:48;8.77;;;7.72;;
56373;SDS011;58212;47.034;7.376;2022-10-23T12:28:29;10.93;;;8.02;;
56373;SDS011;58212;47.034;7.376;2022-10-23T12:31:02;8.50;;;7.60;;
56373;SDS011;58212;47.034;7.376;2022-10-23T12:33:53;8.60;;;6.95;;
56373;SDS011;58212;47.034;7.376;2022-10-23T12:39:26;8.27;;;7.18;;
56373;SDS011;58212;47.034;7.376;2022-10-23T12:41:54;7.22;;;6.53;;
56373;SDS011;58212;47.034;7.376;2022-10-23T12:44:23;8.63;;;6.53;;
56373;SDS011;58212;47.034;7.376;2022-10-23T12:46:54;7.82;;;6.40;;
56373;SDS011;58212;47.034;7.376;2022-10-23T12:49:24;6.80;;;6.18;;
56373;SDS011;58212;47.034;7.376;2022-10-23T12:51:56;7.65;;;6.95;;
56373;SDS011;58212;47.034;7.376;2022-10-23T12:54:26;8.10;;;7.32;;
56373;SDS011;58212;47.034;7.376;2022-10-23T12:56:56;8.80;;;8.00;;
56373;SDS011;58212;47.034;7.376;2022-10-23T12:59:24;10.77;;;8.32;;
56373;SDS011;58212;47.034;7.376;2022-10-23T13:01:56;7.93;;;7.15;;
56373;SDS011;58212;47.034;7.376;2022-10-23T13:04:27;6.93;;;6.22;;
56373;SDS011;58212;47.034;7.376;2022-10-23T13:06:57;7.60;;;6.22;;
56373;SDS011;58212;47.034;7.376;2022-10-23T13:09:30;7.00;;;6.38;;
56373;SDS011;58212;47.034;7.376;2022-10-23T13:12:13;6.82;;;6.15;;
56373;SDS011;58212;47.034;7.376;2022-10-23T13:14:54;8.27;;;6.68;;
56373;SDS011;58212;47.034;7.376;2022-10-23T13:17:32;7.18;;;6.35;;
56373;SDS011;58212;47.034;7.376;2022-10-23T13:20:15;9.07;;;7.57;;
56373;SDS011;58212;47.034;7.376;2022-10-23T13:22:50;9.25;;;6.90;;
56373;SDS011;58212;47.034;7.376;2022-10-23T13:25:34;7.75;;;7.10;;
56373;SDS011;58212;47.034;7.376;2022-10-23T13:30:59;8.32;;;7.47;;
56373;SDS011;58212;47.034;7.376;2022-10-23T13:33:49;8.15;;;7.10;;
56373;SDS011;58212;47.034;7.376;2022-10-23T13:36:29;7.03;;;6.25;;
56373;SDS011;58212;47.034;7.376;2022-10-23T13:39:01;8.50;;;6.70;;
56373;SDS011;58212;47.034;7.376;2022-10-23T13:41:33;7.57;;;6.78;;
56373;SDS011;58212;47.034;7.376;2022-10-23T13:44:03;9.88;;;7.10;;
56373;SDS011;58212;47.034;7.376;2022-10-23T13:46:31;11.75;;;7.05;;
56373;SDS011;58212;47.034;7.376;2022-10-23T13:49:00;7.72;;;6.20;;
56373;SDS011;58212;47.034;7.376;2022-10-23T13:51:27;8.85;;;6.07;;
56373;SDS011;58212;47.034;7.376;2022-10-23T13:53:57;7.30;;;6.57;;
56373;SDS011;58212;47.034;7.376;2022-10-23T13:56:25;8.48;;;6.90;;
56373;SDS011;58212;47.034;7.376;2022-10-23T13:58:54;7.75;;;6.95;;
56373;SDS011;58212;47.034;7.376;2022-10-23T14:01:25;11.82;;;7.20;;
56373;SDS011;58212;47.034;7.376;2022-10-23T14:03:54;9.70;;;6.72;;
56373;SDS011;58212;47.034;7.376;2022-10-23T14:09:09;9.60;;;6.47;;
56373;SDS011;58212;47.034;7.376;2022-10-23T14:11:38;10.45;;;7.03;;
56373;SDS011;58212;47.034;7.376;2022-10-23T14:14:08;13.50;;;6.38;;
56373;SDS011;58212;47.034;7.376;2022-10-23T14:16:35;12.05;;;6.90;;
56373;SDS011;58212;47.034;7.376;2022-10-23T14:19:03;15.05;;;9.52;;
56373;SDS011;58212;47.034;7.376;2022-10-23T14:21:32;11.05;;;7.07;;
56373;SDS011;58212;47.034;7.376;2022-10-23T14:23:59;8.77;;;7.72;;
56373;SDS011;58212;47.034;7.376;2022-10-23T14:26:26;9.38;;;8.48;;
56373;SDS011;58212;47.034;7.376;2022-10-23T14:28:55;8.20;;;7.15;;
56373;SDS011;58212;47.034;7.376;2022-10-23T14:31:25;8.25;;;7.43;;
56373;SDS011;58212;47.034;7.376;2022-10-23T14:33:53;8.43;;;7.68;;
56373;SDS011;58212;47.034;7.376;2022-10-23T14:36:23;7.43;;;6.80;;
56373;SDS011;58212;47.034;7.376;2022-10-23T14:38:53;8.77;;;7.22;;
56373;SDS011;58212;47.034;7.376;2022-10-23T14:41:21;10.40;;;7.00;;
56373;SDS011;58212;47.034;7.376;2022-10-23T14:43:49;7.90;;;6.72;;
56373;SDS011;58212;47.034;7.376;2022-10-23T14:46:18;7.68;;;6.50;;
56373;SDS011;58212;47.034;7.376;2022-10-23T14:48:47;7.72;;;6.28;;
56373;SDS011;58212;47.034;7.376;2022-10-23T14:51:17;5.57;;;5.07;;
56373;SDS011;58212;47.034;7.376;2022-10-23T14:53:45;5.28;;;4.82;;
56373;SDS011;58212;47.034;7.376;2022-10-23T14:56:13;6.90;;;4.93;;
56373;SDS011;58212;47.034;7.376;2022-10-23T14:58:41;7.05;;;4.90;;
56373;SDS011;58212;47.034;7.376;2022-10-23T15:01:08;7.70;;;4.68;;
56373;SDS011;58212;47.034;7.376;2022-10-23T15:03:36;6.22;;;5.05;;
56373;SDS011;58212;47.034;7.376;2022-10-23T15:06:06;7.38;;;4.95;;
56373;SDS011;58212;47.034;7.376;2022-10-23T15:08:33;5.93;;;4.93;;
56373;SDS011;58212;47.034;7.376;2022-10-23T15:11:02;5.18;;;4.18;;
56373;SDS011;58212;47.034;7.376;2022-10-23T15:13:30;7.15;;;4.30;;
56373;SDS011;58212;47.034;7.376;2022-10-23T15:16:01;6.68;;;5.35;;
56373;SDS011;58212;47.034;7.376;2022-10-23T15:18:30;7.28;;;4.82;;
56373;SDS011;58212;47.034;7.376;2022-10-23T15:20:57;6.07;;;4.13;;
56373;SDS011;58212;47.034;7.376;2022-10-23T15:23:26;10.60;;;5.22;;
56373;SDS011;58212;47.034;7.376;2022-10-23T15:25:55;7.25;;;4.22;;
56373;SDS011;58212;47.034;7.376;2022-10-23T15:28:23;8.80;;;4.72;;
56373;SDS011;58212;47.034;7.376;2022-10-23T15:30:50;9.20;;;4.43;;
56373;SDS011;58212;47.034;7.376;2022-10-23T15:33:18;11.40;;;4.60;;